createdAt,value
2018-01-07T00:02:09.062Z,129.10
2018-01-07T00:04:38.201Z,168.97
2018-01-07T00:07:07.246Z,167.13
2018-01-07T00:09:36.308Z,179.80
2018-01-07T00:12:04.762Z,136.37
2018-01-07T00:14:33.510Z,135.90
2018-01-07T00:17:02.644Z,163.27
2018-01-07T00:19:31.118Z,170.43
2018-01-07T00:22:00.158Z,172.93
2018-01-07T00:24:29.308Z,180.43
2018-01-07T00:26:58.326Z,143.97
2018-01-07T00:29:26.799Z,157.53
2018-01-07T00:31:55.718Z,171.33
2018-01-07T00:34:24.222Z,159.57
2018-01-07T00:36:53.081Z,140.93
2018-01-07T00:39:21.438Z,153.73
2018-01-07T00:41:50.488Z,186.57
2018-01-07T00:44:19.308Z,180.03
2018-01-07T00:46:47.843Z,157.73
2018-01-07T00:49:16.584Z,200.80
2018-01-07T00:51:46.621Z,224.80
2018-01-07T00:54:15.170Z,185.93
2018-01-07T00:56:44.268Z,205.37
2018-01-07T00:59:12.666Z,516.53
2018-01-07T01:01:41.636Z,295.43
2018-01-07T01:04:10.365Z,162.97
2018-01-07T01:06:38.921Z,197.80
2018-01-07T01:09:07.326Z,350.40
2018-01-07T01:11:36.513Z,254.87
2018-01-07T01:14:05.399Z,271.67
2018-01-07T01:16:33.889Z,249.10
2018-01-07T01:19:02.691Z,279.90
2018-01-07T01:21:31.099Z,185.40
2018-01-07T01:24:00.344Z,185.97
2018-01-07T01:26:29.300Z,163.70
2018-01-07T01:28:57.796Z,194.53
2018-01-07T01:31:26.671Z,162.27
2018-01-07T01:33:55.868Z,157.77
2018-01-07T01:36:24.788Z,151.40
2018-01-07T01:38:53.240Z,129.07
2018-01-07T01:41:22.180Z,127.93
2018-01-07T01:43:50.488Z,118.43
2018-01-07T01:46:19.580Z,124.43
2018-01-07T01:48:47.892Z,130.70
2018-01-07T01:51:17.015Z,117.67
2018-01-07T01:53:46.215Z,128.50
2018-01-07T01:56:15.156Z,106.10
2018-01-07T01:58:44.257Z,119.40
2018-01-07T02:01:13.372Z,123.93
2018-01-07T02:03:42.462Z,107.47
2018-01-07T02:06:11.476Z,92.03
2018-01-07T02:08:39.928Z,129.93
2018-01-07T02:11:08.886Z,137.00
2018-01-07T02:13:38.111Z,122.17
2018-01-07T02:16:07.500Z,111.83
2018-01-07T02:18:35.824Z,111.20
2018-01-07T02:21:04.997Z,126.87
2018-01-07T02:23:34.955Z,105.83
2018-01-07T02:26:03.591Z,140.37
2018-01-07T02:28:32.527Z,128.37
2018-01-07T02:31:00.897Z,160.23
2018-01-07T02:33:30.734Z,145.00
2018-01-07T02:36:00.038Z,188.67
2018-01-07T02:38:29.085Z,184.67
2018-01-07T02:40:58.011Z,139.23
2018-01-07T02:43:27.321Z,193.87
2018-01-07T02:45:56.065Z,176.20
2018-01-07T02:48:24.472Z,194.73
2018-01-07T02:50:52.917Z,280.07
2018-01-07T02:53:21.891Z,212.10
2018-01-07T02:55:50.210Z,184.70
2018-01-07T02:58:20.212Z,194.77
2018-01-07T03:00:48.613Z,184.73
2018-01-07T03:03:16.993Z,204.20
2018-01-07T03:05:45.715Z,480.43
2018-01-07T03:08:14.887Z,292.57
2018-01-07T03:10:43.201Z,325.17
2018-01-07T03:13:11.520Z,473.17
2018-01-07T03:15:40.913Z,450.97
2018-01-07T03:18:10.360Z,474.73
2018-01-07T03:20:38.785Z,374.10
2018-01-07T03:23:07.240Z,383.97
2018-01-07T03:25:36.252Z,415.57
2018-01-07T03:28:05.912Z,452.43
2018-01-07T03:30:35.043Z,450.93
2018-01-07T03:33:03.356Z,335.47
2018-01-07T03:35:32.540Z,242.37
2018-01-07T03:38:00.986Z,350.97
2018-01-07T03:40:30.024Z,238.80
2018-01-07T03:42:58.907Z,169.63
2018-01-07T03:45:28.802Z,277.60
2018-01-07T03:47:57.799Z,170.47
2018-01-07T03:50:26.115Z,268.73
2018-01-07T03:52:54.568Z,239.27
2018-01-07T03:55:23.552Z,254.53
2018-01-07T03:57:51.856Z,168.23
2018-01-07T04:00:20.916Z,151.13
2018-01-07T04:02:49.227Z,117.13
2018-01-07T04:05:17.587Z,104.73
2018-01-07T04:07:46.695Z,141.77
2018-01-07T04:10:15.503Z,104.30
2018-01-07T04:12:44.587Z,104.10
2018-01-07T04:15:13.688Z,103.00
2018-01-07T04:17:42.912Z,247.77
2018-01-07T04:20:12.096Z,130.90
2018-01-07T04:22:40.445Z,168.43
2018-01-07T04:25:08.759Z,158.37
2018-01-07T04:27:37.815Z,185.17
2018-01-07T04:30:06.664Z,165.67
2018-01-07T04:32:35.142Z,148.00
2018-01-07T04:35:04.160Z,154.73
2018-01-07T04:37:32.614Z,247.90
2018-01-07T04:40:00.956Z,156.13
2018-01-07T04:42:29.772Z,159.70
2018-01-07T04:44:58.181Z,165.03
2018-01-07T04:47:27.135Z,177.97
2018-01-07T04:49:55.457Z,178.87
2018-01-07T04:52:24.577Z,159.10
2018-01-07T04:54:53.068Z,283.57
2018-01-07T04:57:21.891Z,223.70
2018-01-07T04:59:50.359Z,300.17
2018-01-07T05:02:19.320Z,196.73
2018-01-07T05:04:48.347Z,232.07
2018-01-07T05:07:16.820Z,202.93
2018-01-07T05:09:45.723Z,301.80
2018-01-07T05:12:14.028Z,167.53
2018-01-07T05:14:42.436Z,383.20
2018-01-07T05:17:11.423Z,299.50
2018-01-07T05:19:39.823Z,274.23
2018-01-07T05:22:08.823Z,348.07
2018-01-07T05:24:37.940Z,487.40
2018-01-07T05:27:06.987Z,364.90
2018-01-07T05:29:35.424Z,264.13
2018-01-07T05:32:04.296Z,295.17
2018-01-07T05:34:33.472Z,448.67
2018-01-07T05:37:01.828Z,429.83
2018-01-07T05:39:30.381Z,339.17
2018-01-07T05:41:59.073Z,351.80
2018-01-07T05:44:27.495Z,264.53
2018-01-07T05:46:56.416Z,215.50
2018-01-07T05:49:24.755Z,286.57
2018-01-07T05:51:53.187Z,349.23
2018-01-07T05:54:22.280Z,359.80
2018-01-07T05:56:51.206Z,250.23
2018-01-07T05:59:20.387Z,271.57
2018-01-07T06:01:49.359Z,286.47
2018-01-07T06:04:17.811Z,300.67
2018-01-07T06:06:47.346Z,294.80
2018-01-07T06:09:15.847Z,538.87
2018-01-07T06:11:44.741Z,433.57
2018-01-07T06:14:13.116Z,488.63
2018-01-07T06:16:41.426Z,478.53
2018-01-07T06:19:09.743Z,437.13
2018-01-07T06:21:38.103Z,538.63
2018-01-07T06:24:07.123Z,515.97
2018-01-07T06:26:35.461Z,432.87
2018-01-07T06:29:04.013Z,330.70
2018-01-07T06:31:32.764Z,535.33
2018-01-07T06:34:02.037Z,500.80
2018-01-07T06:36:30.504Z,467.30
2018-01-07T06:38:58.820Z,523.30
2018-01-07T06:41:27.563Z,429.73
2018-01-07T06:43:56.682Z,383.30
2018-01-07T06:46:25.000Z,599.33
2018-01-07T06:48:53.888Z,321.60
2018-01-07T06:51:22.290Z,350.67
2018-01-07T06:53:50.608Z,365.93
2018-01-07T06:56:19.632Z,435.47
2018-01-07T06:58:47.996Z,416.27
2018-01-07T07:01:16.531Z,393.83
2018-01-07T07:03:44.900Z,385.83
2018-01-07T07:06:13.628Z,350.23
2018-01-07T07:08:42.047Z,153.53
2018-01-07T07:11:10.932Z,170.03
2018-01-07T07:13:39.343Z,182.07
2018-01-07T07:16:07.663Z,238.73
2018-01-07T07:18:36.364Z,271.20
2018-01-07T07:23:45.492Z,182.83
2018-01-07T07:26:13.863Z,161.47
2018-01-07T07:28:42.850Z,154.73
2018-01-07T07:31:11.949Z,178.20
2018-01-07T07:33:41.016Z,164.70
2018-01-07T07:36:09.336Z,126.00
2018-01-07T07:38:38.216Z,141.73
2018-01-07T07:41:07.061Z,128.97
2018-01-07T07:43:35.384Z,114.40
2018-01-07T07:46:04.040Z,100.10
2018-01-07T07:48:32.347Z,90.77
2018-01-07T07:51:00.844Z,100.47
2018-01-07T07:53:29.704Z,95.97
2018-01-07T07:55:58.911Z,107.60
2018-01-07T07:58:28.019Z,110.70
2018-01-07T08:00:56.989Z,101.93
2018-01-07T08:03:25.300Z,106.57
2018-01-07T08:05:54.372Z,116.40
2018-01-07T08:08:24.431Z,102.20
2018-01-07T08:10:53.520Z,115.37
2018-01-07T08:13:22.469Z,139.13
2018-01-07T08:15:50.872Z,128.43
2018-01-07T08:18:19.655Z,101.30
2018-01-07T08:20:48.248Z,139.70
2018-01-07T08:23:17.215Z,134.83
2018-01-07T08:25:46.305Z,141.70
2018-01-07T08:28:14.620Z,134.63
2018-01-07T08:30:43.788Z,130.87
2018-01-07T08:33:12.103Z,146.53
2018-01-07T08:35:41.012Z,149.03
2018-01-07T08:38:10.308Z,153.17
2018-01-07T08:40:39.283Z,144.47
2018-01-07T08:43:08.130Z,120.90
2018-01-07T08:45:36.506Z,134.60
2018-01-07T08:48:04.854Z,126.60
2018-01-07T08:50:33.181Z,131.57
2018-01-07T08:53:01.552Z,122.17
2018-01-07T08:55:30.496Z,124.67
2018-01-07T08:57:58.813Z,127.57
2018-01-07T09:00:28.408Z,123.63
2018-01-07T09:02:56.809Z,125.10
2018-01-07T09:05:25.917Z,118.67
2018-01-07T09:07:55.173Z,155.40
2018-01-07T09:10:24.214Z,148.60
2018-01-07T09:12:53.213Z,142.63
2018-01-07T09:15:22.403Z,133.90
2018-01-07T09:17:51.337Z,133.83
2018-01-07T09:20:19.654Z,154.27
2018-01-07T09:22:48.036Z,160.57
2018-01-07T09:25:16.591Z,141.70
2018-01-07T09:27:45.252Z,136.13
2018-01-07T09:30:14.052Z,122.93
2018-01-07T09:32:42.556Z,126.77
2018-01-07T09:35:11.072Z,99.80
2018-01-07T09:37:44.973Z,124.17
2018-01-07T09:40:14.184Z,104.07
2018-01-07T09:42:43.181Z,103.37
2018-01-07T09:45:12.189Z,101.60
2018-01-07T09:47:41.344Z,121.53
2018-01-07T09:50:10.597Z,117.73
2018-01-07T09:52:39.685Z,99.57
2018-01-07T09:55:08.264Z,104.50
2018-01-07T09:57:38.372Z,101.80
2018-01-07T10:00:07.492Z,136.13
2018-01-07T10:02:36.052Z,110.67
2018-01-07T10:05:05.036Z,92.30
2018-01-07T10:07:34.241Z,100.13
2018-01-07T10:10:02.574Z,93.70
2018-01-07T10:12:31.297Z,87.53
2018-01-07T10:14:59.812Z,74.23
2018-01-07T10:17:28.128Z,90.80
2018-01-07T10:19:57.106Z,78.13
2018-01-07T10:22:26.392Z,78.70
2018-01-07T10:24:54.781Z,80.93
2018-01-07T10:27:26.172Z,71.23
2018-01-07T10:29:55.097Z,95.93
2018-01-07T10:32:23.446Z,71.17
2018-01-07T10:34:53.056Z,71.80
2018-01-07T10:37:24.068Z,57.47
2018-01-07T10:39:52.632Z,62.30
2018-01-07T10:42:20.940Z,76.50
2018-01-07T10:44:49.295Z,50.27
2018-01-07T10:47:18.196Z,60.93
2018-01-07T10:49:47.055Z,54.37
2018-01-07T10:52:16.088Z,49.23
2018-01-07T10:54:44.591Z,45.27
2018-01-07T10:57:13.092Z,51.63
2018-01-07T10:59:41.820Z,56.20
2018-01-07T11:02:16.008Z,42.03
2018-01-07T11:04:44.691Z,50.73
2018-01-07T11:07:13.188Z,49.40
2018-01-07T11:09:41.557Z,41.80
2018-01-07T11:12:10.728Z,36.33
2018-01-07T11:14:39.053Z,24.70
2018-01-07T11:17:07.443Z,34.43
2018-01-07T11:19:35.916Z,32.53
2018-01-07T11:22:04.525Z,34.43
2018-01-07T11:24:33.420Z,28.10
2018-01-07T11:27:02.674Z,31.10
2018-01-07T11:29:31.087Z,33.40
2018-01-07T11:32:00.126Z,31.03
2018-01-07T11:34:28.729Z,24.23
2018-01-07T11:36:57.031Z,33.03
2018-01-07T11:39:25.780Z,26.87
2018-01-07T11:41:54.851Z,26.83
2018-01-07T11:44:24.300Z,25.60
2018-01-07T11:46:52.672Z,22.07
2018-01-07T11:49:21.363Z,23.50
2018-01-07T11:51:49.848Z,28.53
2018-01-07T11:54:18.683Z,21.70
2018-01-07T11:56:47.213Z,22.83
2018-01-07T11:59:16.640Z,23.83
2018-01-07T12:01:46.814Z,28.27
2018-01-07T12:04:15.212Z,22.00
2018-01-07T12:06:44.100Z,25.47
2018-01-07T12:09:12.469Z,23.83
2018-01-07T12:11:41.309Z,25.57
2018-01-07T12:14:09.764Z,25.23
2018-01-07T12:16:38.233Z,23.93
2018-01-07T12:19:07.184Z,18.10
2018-01-07T12:21:36.300Z,18.90
2018-01-07T12:24:05.306Z,22.20
2018-01-07T12:26:33.615Z,18.53
2018-01-07T12:29:01.941Z,20.20
2018-01-07T12:31:31.068Z,16.57
2018-01-07T12:33:59.471Z,25.70
2018-01-07T12:36:29.324Z,22.03
2018-01-07T12:38:57.700Z,19.10
2018-01-07T12:41:26.825Z,20.50
2018-01-07T12:43:55.627Z,23.37
2018-01-07T12:46:23.999Z,25.03
2018-01-07T12:48:52.316Z,23.67
2018-01-07T12:51:20.636Z,21.63
2018-01-07T12:53:49.756Z,22.53
2018-01-07T12:56:18.678Z,14.90
2018-01-07T12:58:47.038Z,18.33
2018-01-07T13:01:15.497Z,22.20
2018-01-07T13:03:44.224Z,19.50
2018-01-07T13:06:12.564Z,24.00
2018-01-07T13:08:40.938Z,21.37
2018-01-07T13:11:09.931Z,21.83
2018-01-07T13:13:38.240Z,18.33
2018-01-07T13:16:06.676Z,18.07
2018-01-07T13:18:35.053Z,19.93
2018-01-07T13:21:03.950Z,28.00
2018-01-07T13:23:33.083Z,17.67
2018-01-07T13:26:01.393Z,19.70
2018-01-07T13:28:30.346Z,21.53
2018-01-07T13:30:59.500Z,21.53
2018-01-07T13:33:28.501Z,19.60
2018-01-07T13:35:57.830Z,16.67
2018-01-07T13:38:26.635Z,16.63
2018-01-07T13:40:54.939Z,18.17
2018-01-07T13:43:23.818Z,17.40
2018-01-07T13:45:52.397Z,18.37
2018-01-07T13:48:21.180Z,20.83
2018-01-07T13:50:49.896Z,18.67
2018-01-07T13:53:18.225Z,16.70
2018-01-07T13:55:46.528Z,20.70
2018-01-07T13:58:16.460Z,16.10
2018-01-07T14:00:45.301Z,18.43
2018-01-07T14:03:13.654Z,20.13
2018-01-07T14:05:42.712Z,14.40
2018-01-07T14:08:11.029Z,19.07
2018-01-07T14:10:39.919Z,16.60
2018-01-07T14:13:09.349Z,18.33
2018-01-07T14:15:38.445Z,21.37
2018-01-07T14:18:07.695Z,18.87
2018-01-07T14:20:36.545Z,20.37
2018-01-07T14:23:05.728Z,15.27
2018-01-07T14:25:34.790Z,15.23
2018-01-07T14:28:03.934Z,18.77
2018-01-07T14:30:33.034Z,16.50
2018-01-07T14:33:01.908Z,14.67
2018-01-07T14:35:30.387Z,16.17
2018-01-07T14:37:58.711Z,14.53
2018-01-07T14:40:27.569Z,16.37
2018-01-07T14:42:56.698Z,16.50
2018-01-07T14:45:25.089Z,15.23
2018-01-07T14:47:53.446Z,17.53
2018-01-07T14:50:22.391Z,17.97
2018-01-07T14:52:51.419Z,15.83
2018-01-07T14:55:20.555Z,17.37
2018-01-07T14:57:49.650Z,19.80
2018-01-07T15:00:18.636Z,19.70
2018-01-07T15:02:46.993Z,17.20
2018-01-07T15:05:15.627Z,19.53
2018-01-07T15:07:44.365Z,14.53
2018-01-07T15:10:13.404Z,17.70
2018-01-07T15:12:41.877Z,16.83
2018-01-07T15:15:10.639Z,22.63
2018-01-07T15:17:39.116Z,19.07
2018-01-07T15:20:07.540Z,18.57
2018-01-07T15:22:36.506Z,19.80
2018-01-07T15:25:05.600Z,16.87
2018-01-07T15:27:34.878Z,20.53
2018-01-07T15:30:03.697Z,17.60
2018-01-07T15:32:32.004Z,19.93
2018-01-07T15:35:01.310Z,18.43
2018-01-07T15:37:29.911Z,18.53
2018-01-07T15:39:59.003Z,18.37
2018-01-07T15:42:27.642Z,18.17
2018-01-07T15:44:56.086Z,18.00
2018-01-07T15:47:25.103Z,17.30
2018-01-07T15:49:53.542Z,19.60
2018-01-07T15:52:22.316Z,17.03
2018-01-07T15:54:50.680Z,18.97
2018-01-07T15:57:19.787Z,18.63
2018-01-07T15:59:48.149Z,14.13
2018-01-07T16:02:16.464Z,11.50
2018-01-07T16:04:45.473Z,14.87
2018-01-07T16:07:14.489Z,18.53
2018-01-07T16:09:42.858Z,18.03
2018-01-07T16:12:12.058Z,15.10
2018-01-07T16:14:40.372Z,17.73
2018-01-07T16:17:08.906Z,19.20
2018-01-07T16:19:38.371Z,15.77
2018-01-07T16:22:07.448Z,13.53
2018-01-07T16:24:36.077Z,17.03
2018-01-07T16:27:04.870Z,19.23
2018-01-07T16:29:33.878Z,13.40
2018-01-07T16:32:12.112Z,14.53
2018-01-07T16:34:42.263Z,14.73
2018-01-07T16:37:10.723Z,18.57
2018-01-07T16:39:40.097Z,21.40
2018-01-07T16:42:10.184Z,17.03
2018-01-07T16:44:38.702Z,13.87
2018-01-07T16:47:07.594Z,22.73
2018-01-07T16:49:36.071Z,15.60
2018-01-07T16:52:04.968Z,17.23
2018-01-07T16:54:34.598Z,14.60
2018-01-07T16:57:03.391Z,15.20
2018-01-07T16:59:33.705Z,15.80
2018-01-07T17:02:03.000Z,16.53
2018-01-07T17:04:31.499Z,14.37
2018-01-07T17:07:00.969Z,19.27
2018-01-07T17:09:29.668Z,15.00
2018-01-07T17:11:59.181Z,17.07
2018-01-07T17:14:27.871Z,14.37
2018-01-07T17:16:57.479Z,15.87
2018-01-07T17:19:26.188Z,13.67
2018-01-07T17:21:54.694Z,14.20
2018-01-07T17:24:23.098Z,10.80
2018-01-07T17:26:52.104Z,15.67
2018-01-07T17:29:20.466Z,14.63
2018-01-07T17:31:49.622Z,13.17
2018-01-07T17:34:18.533Z,12.27
2018-01-07T17:36:46.898Z,14.93
2018-01-07T17:39:15.355Z,19.37
2018-01-07T17:41:44.212Z,18.30
2018-01-07T17:44:13.309Z,16.87
2018-01-07T17:46:42.603Z,13.73
2018-01-07T17:49:11.639Z,15.63
2018-01-07T17:51:39.990Z,15.37
2018-01-07T17:56:49.500Z,20.43
2018-01-07T17:59:18.521Z,20.90
2018-01-07T18:01:46.884Z,14.50
2018-01-07T18:04:15.295Z,19.13
2018-01-07T18:06:44.227Z,23.40
2018-01-07T18:09:13.511Z,19.80
2018-01-07T18:11:42.547Z,16.17
2018-01-07T18:14:11.515Z,19.83
2018-01-07T18:16:40.639Z,17.27
2018-01-07T18:19:09.826Z,19.93
2018-01-07T18:21:38.951Z,21.27
2018-01-07T18:24:07.920Z,21.27
2018-01-07T18:26:36.998Z,19.60
2018-01-07T18:29:05.350Z,17.73
2018-01-07T18:31:34.326Z,17.57
2018-01-07T18:34:04.403Z,19.50
2018-01-07T18:36:32.955Z,19.47
2018-01-07T18:39:01.608Z,20.30
2018-01-07T18:41:30.871Z,19.80
2018-01-07T18:43:59.958Z,23.60
2018-01-07T18:46:28.931Z,22.23
2018-01-07T18:48:58.172Z,20.10
2018-01-07T18:51:27.090Z,23.57
2018-01-07T18:53:56.226Z,20.70
2018-01-07T18:56:25.322Z,22.60
2018-01-07T18:58:54.010Z,26.60
2018-01-07T19:01:22.662Z,21.20
2018-01-07T19:03:52.521Z,23.17
2018-01-07T19:06:20.914Z,18.93
2018-01-07T19:08:50.098Z,26.30
2018-01-07T19:11:19.212Z,26.10
2018-01-07T19:13:47.950Z,24.60
2018-01-07T19:16:17.296Z,24.93
2018-01-07T19:18:46.072Z,29.33
2018-01-07T19:21:14.434Z,28.30
2018-01-07T19:23:43.742Z,29.90
2018-01-07T19:26:12.185Z,29.57
2018-01-07T19:28:41.148Z,21.80
2018-01-07T19:31:10.172Z,28.47
2018-01-07T19:33:38.632Z,26.23
2018-01-07T19:36:07.706Z,21.00
2018-01-07T19:38:36.462Z,23.60
2018-01-07T19:41:05.704Z,28.10
2018-01-07T19:43:34.844Z,24.10
2018-01-07T19:46:03.583Z,26.17
2018-01-07T19:48:31.947Z,23.23
2018-01-07T19:51:00.396Z,21.77
2018-01-07T19:53:28.967Z,29.00
2018-01-07T19:55:57.432Z,23.80
2018-01-07T19:58:26.184Z,23.73
2018-01-07T20:00:54.628Z,24.83
2018-01-07T20:03:23.503Z,19.50
2018-01-07T20:05:52.669Z,25.90
2018-01-07T20:08:21.754Z,28.83
2018-01-07T20:10:50.884Z,24.33
2018-01-07T20:13:19.319Z,28.80
2018-01-07T20:15:47.679Z,22.90
2018-01-07T20:18:18.063Z,23.53
2018-01-07T20:20:47.237Z,24.00
2018-01-07T20:23:15.642Z,21.83
2018-01-07T20:25:44.539Z,25.07
2018-01-07T20:28:13.483Z,19.30
2018-01-07T20:30:42.770Z,23.60
2018-01-07T20:33:11.223Z,23.97
2018-01-07T20:35:40.158Z,20.40
2018-01-07T20:38:09.189Z,24.03
2018-01-07T20:40:41.715Z,20.43
2018-01-07T20:43:10.590Z,17.83
2018-01-07T20:45:39.051Z,20.90
2018-01-07T20:48:08.540Z,20.30
2018-01-07T20:50:37.075Z,16.73
2018-01-07T20:53:05.482Z,21.63
2018-01-07T20:55:34.498Z,21.60
2018-01-07T20:58:02.856Z,21.30
2018-01-07T21:00:31.282Z,21.07
2018-01-07T21:02:59.740Z,26.80
2018-01-07T21:05:28.487Z,25.10
2018-01-07T21:07:56.936Z,24.60
2018-01-07T21:10:26.633Z,27.00
2018-01-07T21:12:55.724Z,23.47
2018-01-07T21:15:24.259Z,19.83
2018-01-07T21:17:53.304Z,24.60
2018-01-07T21:20:21.673Z,19.40
2018-01-07T21:22:50.169Z,27.20
2018-01-07T21:25:19.567Z,26.27
2018-01-07T21:27:47.939Z,23.93
2018-01-07T21:30:16.847Z,21.30
2018-01-07T21:32:45.412Z,22.87
2018-01-07T21:35:14.352Z,24.93
2018-01-07T21:37:43.458Z,20.00
2018-01-07T21:40:12.711Z,23.20
2018-01-07T21:42:42.438Z,26.00
2018-01-07T21:45:11.551Z,18.30
2018-01-07T21:47:40.270Z,30.03
2018-01-07T21:50:21.347Z,20.57
2018-01-07T21:52:50.906Z,24.00
2018-01-07T21:55:19.406Z,23.37
2018-01-07T21:57:48.050Z,28.27
2018-01-07T22:00:45.894Z,23.63
2018-01-07T22:03:31.947Z,23.67
2018-01-07T22:06:13.106Z,30.63
2018-01-07T22:08:41.999Z,21.03
2018-01-07T22:11:16.434Z,25.57
2018-01-07T22:13:45.437Z,27.17
2018-01-07T22:16:13.823Z,26.33
2018-01-07T22:18:42.707Z,26.60
2018-01-07T22:21:12.036Z,26.80
2018-01-07T22:23:40.887Z,30.43
2018-01-07T22:26:09.894Z,25.27
2018-01-07T22:28:38.984Z,24.03
2018-01-07T22:31:08.175Z,29.37
2018-01-07T22:33:38.223Z,32.80
2018-01-07T22:36:06.869Z,29.53
2018-01-07T22:38:35.416Z,27.63
2018-01-07T22:41:04.568Z,27.97
2018-01-07T22:43:32.931Z,34.53
2018-01-07T22:46:01.410Z,25.90
2018-01-07T22:48:30.239Z,28.00
2018-01-07T22:50:59.287Z,22.30
2018-01-07T22:53:27.858Z,21.60
2018-01-07T22:55:58.131Z,26.93
2018-01-07T22:58:27.572Z,26.80
2018-01-07T23:00:56.854Z,25.90
2018-01-07T23:03:27.898Z,29.30
2018-01-07T23:05:57.208Z,22.83
2018-01-07T23:08:25.723Z,26.10
2018-01-07T23:10:54.483Z,27.73
2018-01-07T23:13:24.539Z,28.17
2018-01-07T23:15:52.951Z,32.10
2018-01-07T23:18:21.754Z,24.33
2018-01-07T23:20:50.846Z,24.37
2018-01-07T23:23:19.241Z,29.20
2018-01-07T23:25:48.273Z,24.73
2018-01-07T23:28:17.032Z,24.67
2018-01-07T23:30:45.400Z,27.10
2018-01-07T23:33:14.041Z,31.17
2018-01-07T23:35:43.142Z,27.90
2018-01-07T23:38:12.245Z,32.70
2018-01-07T23:40:40.617Z,29.80
2018-01-07T23:43:09.478Z,26.60
2018-01-07T23:45:38.568Z,30.83
2018-01-07T23:48:07.686Z,25.67
2018-01-07T23:50:36.734Z,27.33
2018-01-07T23:53:05.767Z,28.53
2018-01-07T23:55:34.082Z,34.17
2018-01-07T23:58:02.403Z,28.30
